Time;durP1;ratioP1;P1;durP2;ratioP2;P2;SDS_P1;SDS_P2;PMS_P1;PMS_P2;Temp;Humidity;BMP_temperature;BMP_pressure;BME280_temperature;BME280_humidity;BME280_pressure;Samples;Min_cycle;Max_cycle;Signal;HPM_P1;HPM_P2
2022/03/21 00:00:48;;;;;;;28.65;18.73;;;6.70;99.90;;;;;;4992853;28;20037;-86
2022/03/21 00:03:16;;;;;;;28.88;19.35;;;6.70;99.90;;;;;;5006792;28;20116;-86
2022/03/21 00:05:42;;;;;;;30.35;18.27;;;8.30;99.90;;;;;;5007389;28;20628;-86
2022/03/21 00:08:11;;;;;;;31.35;18.63;;;7.60;99.90;;;;;;5010885;28;20119;-86
2022/03/21 00:10:38;;;;;;;26.90;17.67;;;6.80;99.90;;;;;;4990805;28;20033;-86
2022/03/21 00:13:04;;;;;;;32.25;18.70;;;7.60;99.90;;;;;;5008252;28;20037;-87
2022/03/21 00:15:34;;;;;;;27.42;17.95;;;;;;;;;;5011035;28;20045;-87
2022/03/21 00:18:02;;;;;;;28.95;17.45;;;6.80;99.90;;;;;;5027753;28;20040;-87
2022/03/21 00:20:29;;;;;;;30.13;18.25;;;6.80;99.90;;;;;;4995956;28;20037;-86
2022/03/21 00:22:55;;;;;;;29.00;17.10;;;6.80;99.90;;;;;;4992758;28;20099;-86
2022/03/21 00:25:21;;;;;;;27.42;17.48;;;7.50;99.90;;;;;;5004134;28;20095;-87
2022/03/21 00:27:47;;;;;;;26.98;16.50;;;6.80;99.90;;;;;;5022234;28;20487;-87
2022/03/21 00:30:13;;;;;;;25.42;16.73;;;6.80;99.90;;;;;;5023690;28;20075;-86
2022/03/21 00:32:39;;;;;;;26.52;16.80;;;7.40;99.90;;;;;;5029310;28;20086;-86
2022/03/21 00:35:06;;;;;;;26.20;16.35;;;7.90;99.90;;;;;;5011208;28;20398;-86
2022/03/21 00:37:34;;;;;;;28.83;16.15;;;6.80;99.90;;;;;;5009803;28;20129;-87
2022/03/21 00:40:00;;;;;;;27.33;16.50;;;6.80;99.90;;;;;;5000213;28;20033;-86
2022/03/21 00:42:26;;;;;;;25.58;16.08;;;6.80;99.90;;;;;;5005460;28;20052;-86
2022/03/21 00:44:54;;;;;;;27.25;15.75;;;6.80;99.90;;;;;;5009684;28;20556;-86
2022/03/21 00:47:20;;;;;;;25.85;15.85;;;7.70;99.90;;;;;;5028800;28;20048;-87
2022/03/21 00:49:48;;;;;;;27.10;17.13;;;7.20;99.90;;;;;;5008040;28;20033;-87
2022/03/21 00:52:14;;;;;;;24.20;15.50;;;8.10;99.90;;;;;;5009854;28;20029;-87
2022/03/21 00:54:40;;;;;;;24.98;16.40;;;8.00;99.90;;;;;;5012798;28;20422;-86
2022/03/21 00:57:06;;;;;;;26.80;16.23;;;7.20;99.90;;;;;;4989120;28;20047;-87
2022/03/21 00:59:32;;;;;;;25.33;16.42;;;6.80;99.90;;;;;;4989115;28;20107;-87
2022/03/21 01:01:57;;;;;;;28.13;15.13;;;6.90;99.90;;;;;;5026028;28;20533;-86
2022/03/21 01:04:23;;;;;;;25.42;15.27;;;7.50;99.90;;;;;;4985303;28;20091;-87
2022/03/21 01:06:49;;;;;;;27.70;16.52;;;6.80;99.90;;;;;;4985211;28;20048;-86
2022/03/21 01:09:17;;;;;;;25.88;16.33;;;6.70;99.90;;;;;;5009970;28;20037;-87
2022/03/21 01:11:43;;;;;;;24.67;14.57;;;6.70;99.90;;;;;;5001238;28;20067;-87
2022/03/21 01:14:10;;;;;;;23.33;15.13;;;6.70;99.90;;;;;;4995150;28;20087;-86
2022/03/21 01:16:37;;;;;;;26.05;15.30;;;6.70;99.90;;;;;;5013945;28;20044;-87
2022/03/21 01:19:03;;;;;;;23.20;14.40;;;8.10;99.90;;;;;;5009284;28;20045;-86
2022/03/21 01:21:30;;;;;;;22.65;13.65;;;6.70;99.90;;;;;;5009852;28;20037;-87
2022/03/21 01:23:56;;;;;;;24.35;14.38;;;7.30;99.90;;;;;;5025758;28;20293;-87
2022/03/21 01:26:22;;;;;;;23.23;14.18;;;6.70;99.90;;;;;;5025328;28;20057;-87
2022/03/21 01:28:48;;;;;;;24.38;14.00;;;8.40;99.90;;;;;;5023919;28;20091;-87
2022/03/21 01:31:13;;;;;;;26.75;15.35;;;7.90;99.90;;;;;;5009432;28;20075;-86
2022/03/21 01:33:40;;;;;;;24.02;15.13;;;7.20;99.90;;;;;;5007760;28;20461;-87
2022/03/21 01:36:07;;;;;;;23.90;13.70;;;6.70;99.90;;;;;;5009655;28;20121;-87
2022/03/21 01:38:34;;;;;;;23.38;14.32;;;7.50;99.90;;;;;;4988228;28;20041;-87
2022/03/21 01:40:59;;;;;;;24.55;14.43;;;7.10;99.90;;;;;;5011010;28;20037;-87
2022/03/21 01:43:25;;;;;;;22.58;13.70;;;7.80;99.90;;;;;;5006667;28;20033;-87
2022/03/21 01:45:51;;;;;;;23.00;13.70;;;6.80;99.90;;;;;;5006705;28;20040;-87
2022/03/21 01:48:17;;;;;;;21.35;13.48;;;6.70;99.90;;;;;;5008684;28;20040;-87
2022/03/21 01:50:43;;;;;;;22.67;12.88;;;6.70;99.90;;;;;;5006867;28;20033;-86
2022/03/21 01:55:58;;;;;;;23.30;13.85;;;6.90;99.90;;;;;;5024036;28;20045;-87
2022/03/21 01:58:25;;;;;;;22.70;12.95;;;6.60;99.90;;;;;;5024461;28;20033;-86
2022/03/21 02:00:51;;;;;;;23.50;13.30;;;7.30;99.90;;;;;;5010615;28;20079;-86
2022/03/21 02:03:21;;;;;;;23.33;13.70;;;6.60;99.90;;;;;;4985867;28;20529;-86
2022/03/21 02:05:47;;;;;;;24.10;13.98;;;6.80;99.90;;;;;;5007806;28;20078;-86
2022/03/21 02:08:14;;;;;;;21.45;12.88;;;6.70;99.90;;;;;;5009078;28;20114;-86
2022/03/21 02:10:43;;;;;;;23.92;12.60;;;6.50;99.90;;;;;;5007264;28;20037;-87
2022/03/21 02:13:10;;;;;;;23.48;13.30;;;6.50;99.90;;;;;;4994222;28;20391;-87
2022/03/21 02:15:36;;;;;;;22.85;14.10;;;6.50;99.90;;;;;;4986810;28;20436;-87
2022/03/21 02:18:04;;;;;;;24.25;14.00;;;6.50;99.90;;;;;;5005039;28;20045;-87
2022/03/21 02:20:34;;;;;;;24.33;14.00;;;6.50;99.90;;;;;;5006113;28;20151;-87
2022/03/21 02:23:16;;;;;;;24.85;13.45;;;7.50;99.90;;;;;;5007482;28;20087;-87
2022/03/21 02:25:43;;;;;;;23.27;13.27;;;6.40;99.90;;;;;;5007601;28;20048;-87
2022/03/21 02:28:14;;;;;;;24.90;13.73;;;6.30;99.90;;;;;;4985847;28;20498;-86
2022/03/21 02:30:43;;;;;;;23.05;14.75;;;7.00;99.90;;;;;;4985767;28;20953;-87
2022/03/21 02:33:12;;;;;;;21.55;14.15;;;7.00;99.90;;;;;;5006565;28;20033;-87
2022/03/21 02:35:38;;;;;;;25.95;14.25;;;6.10;99.90;;;;;;4989540;28;20429;-87
2022/03/21 02:38:06;;;;;;;27.58;15.40;;;6.80;99.90;;;;;;4968696;28;20050;-86
2022/03/21 02:40:33;;;;;;;25.67;15.32;;;6.90;99.90;;;;;;4987221;28;20104;-86
2022/03/21 02:42:59;;;;;;;21.95;14.10;;;7.30;99.90;;;;;;5009717;28;20045;-87
2022/03/21 02:45:25;;;;;;;26.70;15.40;;;6.00;99.90;;;;;;4991048;28;20117;-87
2022/03/21 02:47:51;;;;;;;24.73;15.90;;;7.40;99.90;;;;;;5003883;28;20175;-87
2022/03/21 02:50:25;;;;;;;28.10;15.90;;;6.50;99.90;;;;;;5002912;28;20099;-86
2022/03/21 02:52:52;;;;;;;26.88;15.55;;;6.30;99.90;;;;;;4999218;28;20449;-87
2022/03/21 02:55:18;;;;;;;26.75;16.40;;;6.40;99.90;;;;;;4975956;28;20126;-87
2022/03/21 02:57:43;;;;;;;28.15;17.60;;;7.40;99.90;;;;;;4989522;28;20550;-87
2022/03/21 03:00:12;;;;;;;27.52;17.88;;;5.80;99.90;;;;;;4993168;28;20446;-87
2022/03/21 03:02:38;;;;;;;27.55;17.30;;;5.80;99.90;;;;;;4991186;28;20186;-86
2022/03/21 03:05:04;;;;;;;28.48;17.80;;;5.80;99.90;;;;;;4990943;28;20053;-86
2022/03/21 03:07:29;;;;;;;29.30;17.60;;;5.70;99.90;;;;;;4955661;28;20049;-87
2022/03/21 03:09:55;;;;;;;29.17;17.40;;;5.70;99.90;;;;;;5002060;28;20106;-87
2022/03/21 03:12:21;;;;;;;28.33;17.40;;;6.60;99.90;;;;;;4971619;28;20034;-87
2022/03/21 03:14:46;;;;;;;27.10;17.35;;;6.40;99.90;;;;;;4977882;28;20520;-87
2022/03/21 03:17:12;;;;;;;30.35;17.20;;;5.60;99.90;;;;;;4984388;28;20045;-87
2022/03/21 03:19:38;;;;;;;27.90;16.77;;;6.70;99.90;;;;;;4985652;28;20041;-87
2022/03/21 03:22:05;;;;;;;28.42;17.30;;;5.60;99.90;;;;;;4972664;28;20495;-86
2022/03/21 03:24:33;;;;;;;26.95;17.05;;;5.60;99.90;;;;;;5009347;28;20273;-86
2022/03/21 03:26:58;;;;;;;29.05;16.55;;;6.20;99.90;;;;;;4978011;28;20053;-86
2022/03/21 03:29:24;;;;;;;28.20;16.63;;;5.60;99.90;;;;;;5008958;28;20134;-86
2022/03/21 03:31:50;;;;;;;25.85;16.23;;;6.50;99.90;;;;;;4990935;28;20037;-87
2022/03/21 03:34:16;;;;;;;26.48;17.40;;;5.60;99.90;;;;;;4995757;28;20037;-87
2022/03/21 03:36:42;;;;;;;25.20;16.02;;;5.60;99.90;;;;;;4994066;28;20072;-87
2022/03/21 03:39:07;;;;;;;27.98;16.08;;;5.50;99.90;;;;;;4995031;28;20064;-87
2022/03/21 03:41:33;;;;;;;29.08;16.90;;;5.50;99.90;;;;;;5000584;28;20041;-87
2022/03/21 03:43:59;;;;;;;29.15;16.30;;;5.40;99.90;;;;;;4986020;28;20399;-87
2022/03/21 03:46:25;;;;;;;26.83;16.20;;;6.60;99.90;;;;;;4992834;28;20040;-87
2022/03/21 03:48:54;;;;;;;28.80;17.60;;;6.80;99.90;;;;;;4991961;28;20047;-86
2022/03/21 03:51:19;;;;;;;25.33;16.08;;;6.20;99.90;;;;;;4993418;28;20072;-87
2022/03/21 03:53:46;;;;;;;25.80;16.42;;;;;;;;;;4993077;28;20065;-87
2022/03/21 03:56:11;;;;;;;25.23;15.75;;;5.20;99.90;;;;;;5000556;28;20080;-87
2022/03/21 03:58:38;;;;;;;28.63;17.70;;;6.30;99.90;;;;;;5003747;28;20468;-86
2022/03/21 04:01:05;;;;;;;25.90;16.15;;;6.40;99.90;;;;;;5021712;28;20045;-87
2022/03/21 04:03:46;;;;;;;29.33;16.52;;;6.70;99.90;;;;;;5006914;28;20041;-87
2022/03/21 04:06:21;;;;;;;28.17;15.77;;;5.30;99.90;;;;;;4988749;28;20495;-87
2022/03/21 04:08:48;;;;;;;24.15;15.35;;;5.90;99.90;;;;;;4984293;28;20039;-87
2022/03/21 04:11:14;;;;;;;27.95;16.73;;;6.00;99.90;;;;;;5007376;28;20045;-87
2022/03/21 04:13:41;;;;;;;27.80;16.75;;;6.10;99.90;;;;;;5016942;28;20117;-87
2022/03/21 04:16:07;;;;;;;26.55;15.98;;;4.90;99.90;;;;;;5005356;28;20640;-87
2022/03/21 04:18:34;;;;;;;29.83;18.20;;;5.90;99.90;;;;;;5002112;28;20045;-87
2022/03/21 04:21:00;;;;;;;28.65;17.00;;;6.30;99.90;;;;;;4985298;28;20419;-87
2022/03/21 04:23:25;;;;;;;27.98;16.67;;;5.90;99.90;;;;;;4985224;28;20045;-87
2022/03/21 04:25:51;;;;;;;25.65;16.17;;;4.80;99.90;;;;;;4990616;28;20040;-87
2022/03/21 04:28:17;;;;;;;27.08;16.85;;;5.00;99.90;;;;;;4984241;28;20579;-87
2022/03/21 04:30:43;;;;;;;28.73;16.20;;;3.90;99.90;;;;;;5001434;28;20366;-87
2022/03/21 04:33:10;;;;;;;27.90;16.65;;;4.80;99.90;;;;;;4984045;28;20397;-87
2022/03/21 04:35:36;;;;;;;27.42;16.60;;;6.40;99.90;;;;;;4995077;28;20550;-87
2022/03/21 04:38:03;;;;;;;25.77;15.60;;;5.10;99.90;;;;;;5002016;28;20073;-87
2022/03/21 04:40:29;;;;;;;27.60;16.00;;;6.20;99.90;;;;;;5010819;28;20082;-87
2022/03/21 04:42:55;;;;;;;26.50;15.82;;;4.70;99.90;;;;;;5003466;28;20033;-87
2022/03/21 04:45:21;;;;;;;26.17;16.30;;;5.90;99.90;;;;;;4982068;28;20088;-86
2022/03/21 04:47:47;;;;;;;26.42;15.63;;;4.70;99.90;;;;;;5016335;28;20045;-87
2022/03/21 04:50:13;;;;;;;27.15;16.08;;;4.60;99.90;;;;;;4977043;28;20048;-86
2022/03/21 04:52:39;;;;;;;26.60;15.95;;;5.50;99.90;;;;;;5012566;28;20458;-86
2022/03/21 04:55:08;;;;;;;25.98;16.08;;;6.10;99.90;;;;;;5016054;28;20069;-87
2022/03/21 04:57:37;;;;;;;26.20;16.10;;;4.60;99.90;;;;;;5018804;28;20055;-87
2022/03/21 05:00:08;;;;;;;24.25;15.40;;;5.10;99.90;;;;;;4996194;28;20148;-86
2022/03/21 05:02:33;;;;;;;32.08;16.05;;;4.50;99.90;;;;;;5017245;28;20418;-86
2022/03/21 05:04:59;;;;;;;24.48;15.10;;;4.50;99.90;;;;;;4983296;28;20049;-86
2022/03/21 05:07:25;;;;;;;27.45;14.80;;;4.50;99.90;;;;;;5016711;28;20506;-87
2022/03/21 05:09:51;;;;;;;25.40;15.30;;;5.40;99.90;;;;;;5001012;28;20037;-87
2022/03/21 05:12:17;;;;;;;27.00;15.40;;;4.70;99.90;;;;;;5017653;28;20287;-87
2022/03/21 05:14:43;;;;;;;24.15;14.07;;;5.10;99.90;;;;;;4985053;28;20456;-87
2022/03/21 05:17:11;;;;;;;26.20;15.68;;;5.50;99.90;;;;;;4990718;28;20370;-86
2022/03/21 05:19:37;;;;;;;26.73;15.93;;;4.30;99.90;;;;;;5015259;28;20457;-87
2022/03/21 05:22:06;;;;;;;26.50;15.98;;;4.30;99.90;;;;;;4982613;28;20041;-86
2022/03/21 05:35:52;;;;;;;27.80;15.63;;;4.30;99.90;;;;;;5025820;28;20037;-86
2022/03/21 05:38:18;;;;;;;24.25;14.75;;;4.20;99.90;;;;;;5010844;28;20425;-87
2022/03/21 05:40:43;;;;;;;23.73;14.93;;;4.70;99.90;;;;;;4998172;28;20041;-86
2022/03/21 05:43:09;;;;;;;24.90;14.35;;;5.10;99.90;;;;;;4989229;28;20523;-86
2022/03/21 05:45:35;;;;;;;29.40;14.75;;;4.10;99.90;;;;;;5011050;28;20033;-86
2022/03/21 05:50:45;;;;;;;28.65;15.43;;;4.10;99.90;;;;;;4993016;28;20045;-87
2022/03/21 05:53:10;;;;;;;26.50;15.65;;;4.10;99.90;;;;;;4998398;28;20032;-86
2022/03/21 05:55:36;;;;;;;27.35;15.20;;;4.10;99.90;;;;;;5022078;28;20175;-87
2022/03/21 05:58:02;;;;;;;26.15;15.38;;;4.60;99.90;;;;;;5007962;28;20040;-86
2022/03/21 06:00:28;;;;;;;25.65;15.27;;;4.30;99.90;;;;;;4992661;28;20110;-86
2022/03/21 06:02:54;;;;;;;25.77;14.48;;;;;;;;;;4984545;28;20099;-86
2022/03/21 06:05:22;;;;;;;26.58;14.57;;;3.80;99.90;;;;;;5002697;28;20041;-86
2022/03/21 06:07:50;;;;;;;25.02;15.02;;;3.70;99.90;;;;;;5029204;28;20037;-86
2022/03/21 06:10:15;;;;;;;22.23;13.80;;;3.70;99.90;;;;;;5009592;28;20204;-87
2022/03/21 06:12:41;;;;;;;22.77;14.00;;;5.00;99.90;;;;;;5007480;28;20184;-87
2022/03/21 06:15:08;;;;;;;23.20;14.05;;;3.60;99.90;;;;;;5009423;28;20532;-86
2022/03/21 06:17:42;;;;;;;24.35;15.20;;;3.60;99.90;;;;;;5023602;28;20041;-86
2022/03/21 06:20:14;;;;;;;23.92;14.80;;;3.60;99.90;;;;;;5005735;28;20045;-86
2022/03/21 06:22:40;;;;;;;28.38;15.55;;;4.80;99.90;;;;;;5014609;28;20489;-86
2022/03/21 06:25:07;;;;;;;25.15;14.65;;;4.80;99.90;;;;;;4992659;28;20037;-86
2022/03/21 06:27:35;;;;;;;24.77;14.40;;;3.80;99.90;;;;;;5005625;28;20057;-86
2022/03/21 06:30:02;;;;;;;26.70;15.65;;;3.90;99.90;;;;;;5015855;28;20041;-86
2022/03/21 06:32:28;;;;;;;24.17;14.57;;;4.30;99.90;;;;;;4983238;28;20045;-86
2022/03/21 06:34:53;;;;;;;22.50;14.23;;;4.00;99.90;;;;;;4995847;28;20402;-86
2022/03/21 06:37:20;;;;;;;25.23;15.02;;;4.10;99.90;;;;;;4989150;28;20049;-86
2022/03/21 06:39:46;;;;;;;24.92;14.70;;;4.10;99.90;;;;;;4994519;28;20037;-87
2022/03/21 06:42:14;;;;;;;24.42;14.45;;;5.40;99.90;;;;;;5014856;28;20125;-86
2022/03/21 06:44:41;;;;;;;24.80;15.20;;;4.20;99.90;;;;;;5002105;28;20041;-87
2022/03/21 06:47:07;;;;;;;26.30;15.25;;;4.20;99.90;;;;;;5011302;28;20056;-87
2022/03/21 06:49:33;;;;;;;23.73;14.23;;;4.30;99.90;;;;;;5020910;28;20459;-86
2022/03/21 06:52:02;;;;;;;24.83;14.38;;;4.40;99.90;;;;;;4988826;28;20076;-86
2022/03/21 06:54:29;;;;;;;24.40;14.35;;;5.20;99.90;;;;;;4995222;28;20445;-87
2022/03/21 06:56:55;;;;;;;23.50;14.18;;;6.10;99.90;;;;;;4994691;28;20049;-86
2022/03/21 06:59:22;;;;;;;24.67;13.43;;;;;;;;;;4990927;28;20036;-86
2022/03/21 07:01:47;;;;;;;23.13;14.13;;;4.80;99.90;;;;;;4998980;28;20575;-87
2022/03/21 07:04:13;;;;;;;23.08;13.63;;;5.80;99.90;;;;;;5015900;28;20065;-86
2022/03/21 07:06:39;;;;;;;26.27;15.10;;;6.40;99.90;;;;;;4985880;28;20047;-87
2022/03/21 07:09:05;;;;;;;23.15;14.75;;;5.20;99.90;;;;;;5002477;28;20124;-86
2022/03/21 07:11:32;;;;;;;24.95;15.50;;;5.40;99.90;;;;;;5014416;28;20037;-87
2022/03/21 07:13:58;;;;;;;24.55;15.73;;;5.50;99.90;;;;;;4996062;28;20416;-87
2022/03/21 07:16:23;;;;;;;25.83;15.60;;;6.70;99.90;;;;;;4993056;28;20052;-87
2022/03/21 07:18:49;;;;;;;26.83;15.13;;;7.10;99.90;;;;;;5000739;28;20149;-87
2022/03/21 07:21:16;;;;;;;26.15;14.88;;;6.90;99.90;;;;;;5023608;28;20045;-87
2022/03/21 07:23:42;;;;;;;28.23;15.32;;;7.20;99.90;;;;;;4980327;28;20175;-87
2022/03/21 07:26:09;;;;;;;23.48;15.02;;;7.10;99.90;;;;;;5000863;28;20445;-87
2022/03/21 07:28:34;;;;;;;26.50;16.05;;;6.30;99.90;;;;;;4967541;28;1121186;-87
2022/03/21 07:31:00;;;;;;;27.73;17.55;;;6.40;99.90;;;;;;4999857;28;20036;-87
2022/03/21 07:33:26;;;;;;;27.13;17.00;;;6.50;99.90;;;;;;5003507;28;20080;-86
2022/03/21 07:35:51;;;;;;;28.48;17.38;;;6.60;99.90;;;;;;4976317;28;20033;-87
2022/03/21 07:38:22;;;;;;;30.48;17.42;;;6.70;99.90;;;;;;5026972;28;20045;-87
2022/03/21 07:40:49;;;;;;;26.92;17.25;;;7.70;99.90;;;;;;5025828;28;20388;-89
2022/03/21 07:43:15;;;;;;;28.55;17.83;;;6.90;99.90;;;;;;4994715;28;20223;-87
2022/03/21 07:48:27;;;;;;;29.05;17.58;;;7.10;99.90;;;;;;5008288;28;20045;-90
2022/03/21 07:50:53;;;;;;;29.05;17.83;;;7.40;99.90;;;;;;4998419;28;20032;-86
2022/03/21 07:53:19;;;;;;;27.02;17.20;;;8.20;99.90;;;;;;4994347;28;20041;-87
2022/03/21 07:55:50;;;;;;;28.27;17.00;;;6.10;99.90;;;;;;4992645;28;20036;-86
2022/03/21 08:01:22;;;;;;;29.48;16.70;;;7.70;99.90;;;;;;5006852;28;20442;-86
2022/03/21 08:03:47;;;;;;;25.27;15.05;;;7.70;99.90;;;;;;5024739;28;20034;-89
2022/03/21 08:06:13;;;;;;;28.45;16.88;;;8.20;99.90;;;;;;4980479;28;20034;-87
2022/03/21 08:08:39;;;;;;;24.10;14.98;;;8.80;99.90;;;;;;4996490;28;20033;-88
2022/03/21 08:11:05;;;;;;;25.25;14.88;;;8.00;99.90;;;;;;5021788;28;20404;-87
2022/03/21 08:13:34;;;;;;;24.85;14.43;;;9.70;99.90;;;;;;5007071;28;20033;-89
2022/03/21 08:16:02;;;;;;;25.00;15.43;;;8.10;99.90;;;;;;4979254;28;20128;-89
2022/03/21 08:18:28;;;;;;;27.88;15.95;;;8.20;99.90;;;;;;4979507;28;20123;-87
2022/03/21 08:20:53;;;;;;;23.90;14.73;;;9.70;99.90;;;;;;5000922;28;20469;-85
2022/03/21 08:23:19;;;;;;;24.92;14.93;;;8.40;99.90;;;;;;4981014;28;20131;-87
2022/03/21 08:25:46;;;;;;;24.02;15.45;;;9.50;99.90;;;;;;5001983;28;20069;-86
2022/03/21 08:28:14;;;;;;;28.42;15.02;;;8.60;99.90;;;;;;4999411;28;20048;-85
2022/03/21 08:30:41;;;;;;;24.40;15.95;;;9.50;99.90;;;;;;5012380;28;20036;-86
2022/03/21 08:33:08;;;;;;;25.55;14.95;;;8.90;99.90;;;;;;4996790;28;20083;-88
2022/03/21 08:35:36;;;;;;;24.13;14.55;;;8.90;99.90;;;;;;4996465;28;20053;-84
2022/03/21 08:38:03;;;;;;;26.48;16.00;;;9.00;99.90;;;;;;5027638;28;20565;-86
2022/03/21 08:40:28;;;;;;;26.00;15.30;;;9.10;99.90;;;;;;5015127;28;20040;-87
2022/03/21 08:42:56;;;;;;;23.73;14.77;;;9.20;99.90;;;;;;5012392;28;20056;-86
2022/03/21 08:45:22;;;;;;;24.52;15.27;;;10.20;99.90;;;;;;4995282;28;20037;-87
2022/03/21 08:47:50;;;;;;;25.45;15.13;;;9.40;99.90;;;;;;5012381;28;20193;-88
2022/03/21 08:50:16;;;;;;;23.60;14.93;;;9.50;99.90;;;;;;5005744;28;20398;-87
2022/03/21 08:52:42;;;;;;;23.45;14.98;;;9.50;99.90;;;;;;5029405;28;20044;-86
2022/03/21 08:55:08;;;;;;;24.27;14.60;;;9.60;99.90;;;;;;5015071;28;20044;-88
2022/03/21 08:57:34;;;;;;;27.08;15.35;;;9.70;99.90;;;;;;5015538;28;20146;-88
2022/03/21 09:00:02;;;;;;;23.70;14.85;;;9.80;99.90;;;;;;5004904;28;20037;-87
2022/03/21 09:02:27;;;;;;;26.52;16.08;;;9.90;99.90;;;;;;5015294;28;20074;-88
2022/03/21 09:04:53;;;;;;;24.83;15.25;;;9.90;99.90;;;;;;4997517;28;20638;-88
2022/03/21 09:07:19;;;;;;;26.20;15.05;;;10.10;99.90;;;;;;4998422;28;20045;-90
2022/03/21 09:09:45;;;;;;;26.38;16.02;;;10.10;99.90;;;;;;5017811;28;20033;-91
2022/03/21 09:12:11;;;;;;;25.25;15.95;;;10.20;99.90;;;;;;5012803;28;20047;-86
2022/03/21 09:14:37;;;;;;;27.20;16.60;;;10.50;99.90;;;;;;4990533;28;20101;-89
2022/03/21 09:17:03;;;;;;;26.85;16.55;;;10.40;99.90;;;;;;4983542;28;20180;-89
2022/03/21 09:19:29;;;;;;;25.15;16.33;;;10.50;99.90;;;;;;5009764;28;20037;-93
2022/03/21 09:21:56;;;;;;;26.63;16.80;;;11.80;99.90;;;;;;5025239;28;20051;-88
2022/03/21 09:24:22;;;;;;;28.13;17.35;;;10.70;99.90;;;;;;5028792;28;20037;-86
2022/03/21 09:26:53;;;;;;;27.58;17.13;;;10.80;99.90;;;;;;5032609;28;20033;-88
2022/03/21 09:29:19;;;;;;;30.00;16.67;;;10.80;99.90;;;;;;5013568;28;20211;-89
2022/03/21 09:31:48;;;;;;;25.85;14.85;;;;;;;;;;5021998;28;20111;-90
2022/03/21 09:34:16;;;;;;;24.55;16.25;;;11.00;99.90;;;;;;5015780;28;20072;-88
2022/03/21 09:36:42;;;;;;;28.27;17.05;;;11.10;99.90;;;;;;4997276;28;20094;-89
2022/03/21 09:39:08;;;;;;;23.45;15.07;;;11.20;99.90;;;;;;5021236;28;20479;-89
2022/03/21 09:41:35;;;;;;;26.80;16.00;;;11.30;99.90;;;;;;5014109;28;20040;-86
2022/03/21 09:44:07;;;;;;;27.75;16.38;;;11.90;99.90;;;;;;5020092;28;20091;-87
2022/03/21 09:46:34;;;;;;;30.50;16.63;;;11.60;99.90;;;;;;5014814;28;20110;-88
2022/03/21 09:49:04;;;;;;;25.75;15.45;;;11.60;99.90;;;;;;5011759;28;20398;-85
2022/03/21 09:51:30;;;;;;;25.52;15.52;;;11.70;99.90;;;;;;5010240;28;20043;-89
2022/03/21 09:53:59;;;;;;;25.85;16.45;;;11.70;99.90;;;;;;4981860;28;20389;-90
2022/03/21 09:56:29;;;;;;;25.27;16.50;;;11.80;99.90;;;;;;5013451;28;20040;-89
2022/03/21 09:59:01;;;;;;;24.08;15.20;;;11.80;99.90;;;;;;4993023;28;20207;-88
2022/03/21 10:01:32;;;;;;;24.92;15.75;;;11.80;99.90;;;;;;5030020;28;20519;-87
2022/03/21 10:03:59;;;;;;;24.90;15.88;;;11.90;99.90;;;;;;5029640;28;20366;-87
2022/03/21 10:06:40;;;;;;;25.58;15.43;;;11.90;99.90;;;;;;5021378;28;20068;-88
2022/03/21 10:09:05;;;;;;;24.90;15.75;;;12.10;99.90;;;;;;5012694;28;20049;-88
2022/03/21 10:11:32;;;;;;;27.25;16.95;;;12.20;99.90;;;;;;5028732;28;20358;-88
2022/03/21 10:14:00;;;;;;;25.50;16.80;;;12.20;99.90;;;;;;4995722;28;20072;-87
2022/03/21 10:16:26;;;;;;;26.00;15.57;;;12.30;99.90;;;;;;4999375;28;20477;-85
2022/03/21 10:18:57;;;;;;;26.60;16.20;;;12.40;99.90;;;;;;5012510;28;20129;-87
2022/03/21 10:21:28;;;;;;;22.65;15.27;;;12.50;99.90;;;;;;5027704;28;20041;-88
2022/03/21 10:24:06;;;;;;;27.48;16.38;;;12.60;99.90;;;;;;4986490;28;20119;-87
2022/03/21 10:26:34;;;;;;;23.77;15.23;;;12.70;99.90;;;;;;5029327;28;20460;-88
2022/03/21 10:29:05;;;;;;;24.15;14.50;;;12.80;99.90;;;;;;5027487;28;20081;-87
2022/03/21 10:31:41;;;;;;;23.85;15.13;;;12.80;99.90;;;;;;5009575;28;20111;-88
2022/03/21 10:34:12;;;;;;;24.05;15.13;;;12.90;99.90;;;;;;5007068;28;20045;-87
2022/03/21 10:37:04;;;;;;;21.35;13.93;;;13.00;99.90;;;;;;5010876;28;20037;-87
2022/03/21 10:39:32;;;;;;;24.35;14.77;;;13.00;99.90;;;;;;5009514;28;20033;-87
2022/03/21 10:42:06;;;;;;;22.70;14.57;;;13.00;99.90;;;;;;4994935;28;20036;-87
2022/03/21 10:44:33;;;;;;;23.98;14.57;;;13.00;99.90;;;;;;5025837;28;21025;-87
2022/03/21 10:47:05;;;;;;;22.52;14.70;;;13.00;99.90;;;;;;5022645;28;20036;-88
2022/03/21 10:49:35;;;;;;;23.80;14.38;;;13.00;99.90;;;;;;5013836;28;20052;-86
2022/03/21 10:52:02;;;;;;;22.90;13.45;;;13.10;99.90;;;;;;5011646;28;20033;-86
2022/03/21 10:54:43;;;;;;;24.60;14.90;;;13.20;99.90;;;;;;5016325;28;20382;-85
2022/03/21 10:57:31;;;;;;;26.13;13.73;;;13.20;99.90;;;;;;5027184;28;20520;-87
2022/03/21 11:00:20;;;;;;;22.20;13.00;;;13.30;99.90;;;;;;5009109;28;20543;-87
2022/03/21 11:02:57;;;;;;;22.80;13.57;;;13.30;99.90;;;;;;5005075;28;20403;-85
2022/03/21 11:05:28;;;;;;;24.42;14.23;;;13.40;99.90;;;;;;5034412;28;20071;-86
2022/03/21 11:07:54;;;;;;;23.60;14.85;;;13.50;99.90;;;;;;5013398;28;20346;-86
2022/03/21 11:10:21;;;;;;;23.25;14.82;;;13.50;99.90;;;;;;4996829;28;20037;-88
2022/03/21 11:12:48;;;;;;;25.10;15.18;;;13.70;99.90;;;;;;5014391;28;20048;-85
2022/03/21 11:15:14;;;;;;;24.55;15.00;;;13.70;99.90;;;;;;5022970;28;20037;-87
2022/03/21 11:17:45;;;;;;;24.50;14.70;;;13.70;99.90;;;;;;5015072;28;20490;-86
2022/03/21 11:20:12;;;;;;;22.45;14.55;;;13.80;99.90;;;;;;5042959;28;20711;-86
2022/03/21 11:22:39;;;;;;;22.83;14.15;;;13.80;99.90;;;;;;5013455;28;20353;-87
2022/03/21 11:25:14;;;;;;;25.67;14.07;;;13.90;99.90;;;;;;4976735;28;20045;-87
2022/03/21 11:28:04;;;;;;;23.40;14.57;;;13.90;99.90;;;;;;5012973;28;20080;-86
2022/03/21 11:30:38;;;;;;;21.80;13.38;;;14.10;99.90;;;;;;5004075;28;20383;-86
2022/03/21 11:33:12;;;;;;;20.30;13.10;;;14.20;99.90;;;;;;5012122;28;20076;-87
2022/03/21 11:35:43;;;;;;;19.77;13.18;;;14.30;99.90;;;;;;4990203;28;20038;-87
2022/03/21 11:38:24;;;;;;;23.88;13.18;;;14.40;99.90;;;;;;4987973;28;20128;-88
2022/03/21 11:40:50;;;;;;;22.63;13.70;;;14.50;99.90;;;;;;5007006;28;20065;-87
2022/03/21 11:43:19;;;;;;;21.88;13.48;;;14.60;99.90;;;;;;4972000;28;20453;-86
2022/03/21 11:45:45;;;;;;;20.42;13.02;;;14.60;99.90;;;;;;4987310;28;20464;-86
2022/03/21 11:48:17;;;;;;;22.73;13.63;;;14.60;99.90;;;;;;5009124;28;20041;-88
2022/03/21 11:50:43;;;;;;;22.17;14.25;;;14.70;99.90;;;;;;5016555;28;20128;-86
2022/03/21 11:53:11;;;;;;;22.38;13.77;;;14.70;99.90;;;;;;4972593;28;20037;-88
2022/03/21 11:55:43;;;;;;;27.75;14.18;;;14.70;99.90;;;;;;4993016;28;20451;-87
2022/03/21 11:58:27;;;;;;;26.70;15.00;;;14.80;99.90;;;;;;5010274;28;20044;-87
2022/03/21 12:01:24;;;;;;;21.85;13.98;;;14.80;99.90;;;;;;5009621;28;20038;-89
2022/03/21 12:03:50;;;;;;;22.60;13.65;;;14.90;99.90;;;;;;4992643;28;20038;-88
2022/03/21 12:06:24;;;;;;;24.38;14.93;;;15.00;99.90;;;;;;4975085;28;20125;-89
2022/03/21 12:08:51;;;;;;;27.35;15.43;;;15.00;99.90;;;;;;4991973;28;20045;-88
2022/03/21 12:11:38;;;;;;;21.60;14.30;;;15.10;99.90;;;;;;5009690;28;20053;-88
2022/03/21 12:14:36;;;;;;;20.80;12.52;;;15.20;99.90;;;;;;4991192;28;20030;-88
2022/03/21 12:17:02;;;;;;;21.52;12.52;;;15.30;99.90;;;;;;5006625;28;20092;-88
2022/03/21 12:22:30;;;;;;;22.13;13.95;;;15.40;99.90;;;;;;5007827;28;20116;-88
2022/03/21 12:25:11;;;;;;;24.10;14.23;;;15.50;99.90;;;;;;5010038;28;20820;-89
2022/03/21 12:27:51;;;;;;;23.55;14.65;;;15.50;99.90;;;;;;5006422;28;20142;-88
2022/03/21 12:30:32;;;;;;;22.48;14.13;;;15.50;99.90;;;;;;5015257;28;20053;-86
2022/03/21 12:33:05;;;;;;;24.55;14.05;;;15.60;99.90;;;;;;5020022;28;20033;-85
2022/03/21 12:35:31;;;;;;;23.05;14.45;;;15.60;99.90;;;;;;5020323;28;20064;-87
2022/03/21 12:38:14;;;;;;;23.58;14.05;;;15.60;99.90;;;;;;5008027;28;20067;-85
2022/03/21 12:43:25;;;;;;;21.63;13.80;;;15.50;98.30;;;;;;5003137;28;20374;-87
2022/03/21 12:46:04;;;;;;;20.83;12.85;;;15.50;99.90;;;;;;4994816;28;20056;-88
2022/03/21 12:48:30;;;;;;;22.80;13.52;;;15.60;99.90;;;;;;5001060;28;20052;-86
2022/03/21 12:50:56;;;;;;;20.35;12.82;;;15.70;99.90;;;;;;4996749;28;20534;-86
2022/03/21 12:53:23;;;;;;;20.60;13.55;;;15.60;99.50;;;;;;4996550;28;20124;-85
2022/03/21 12:56:08;;;;;;;21.40;13.18;;;15.60;99.90;;;;;;5009270;28;20041;-87
2022/03/21 12:58:34;;;;;;;22.77;13.90;;;15.70;99.00;;;;;;5003611;28;20044;-86
2022/03/21 13:01:01;;;;;;;22.83;13.80;;;15.80;99.90;;;;;;4984275;28;20037;-86
2022/03/21 13:03:29;;;;;;;22.85;13.52;;;15.90;99.90;;;;;;4986011;28;20041;-86
2022/03/21 13:11:45;;;;;;;23.02;14.13;;;16.10;98.80;;;;;;5014196;28;20033;-86
2022/03/21 13:14:16;;;;;;;20.52;14.07;;;16.10;97.00;;;;;;4999668;28;20092;-87